createdAt,value
2022-09-15T00:00:45.826Z,16.03
2022-09-15T00:06:09.546Z,16.03
2022-09-15T00:11:22.910Z,16.00
2022-09-15T00:16:27.377Z,15.96
2022-09-15T00:21:32.148Z,15.89
2022-09-15T00:26:35.393Z,15.84
2022-09-15T00:31:39.019Z,15.77
2022-09-15T00:36:42.152Z,15.76
2022-09-15T00:41:44.792Z,15.72
2022-09-15T00:47:09.682Z,15.64
2022-09-15T00:52:29.157Z,15.53
2022-09-15T00:57:41.176Z,15.44
2022-09-15T01:02:46.614Z,15.34
2022-09-15T01:07:59.569Z,15.17
2022-09-15T01:13:05.501Z,14.98
2022-09-15T01:18:18.517Z,14.89
2022-09-15T01:23:47.739Z,14.89
2022-09-15T01:29:02.418Z,14.89
2022-09-15T01:34:16.482Z,14.92
2022-09-15T01:39:25.119Z,14.93
2022-09-15T01:44:49.862Z,14.93
2022-09-15T01:50:17.049Z,14.96
2022-09-15T01:55:32.250Z,14.98
2022-09-15T02:00:39.287Z,14.86
2022-09-15T02:05:52.355Z,14.87
2022-09-15T02:11:01.147Z,14.84
2022-09-15T02:16:04.502Z,14.85
2022-09-15T02:21:18.010Z,14.89
2022-09-15T02:26:25.077Z,14.92
2022-09-15T02:31:27.392Z,14.92
2022-09-15T02:36:30.559Z,14.87
2022-09-15T02:41:35.298Z,14.83
2022-09-15T02:46:37.408Z,14.80
2022-09-15T02:51:39.376Z,14.78
2022-09-15T02:56:41.351Z,14.82
2022-09-15T03:01:44.853Z,14.86
2022-09-15T03:06:47.725Z,14.87
2022-09-15T03:11:50.673Z,14.83
2022-09-15T03:16:54.142Z,14.79
2022-09-15T03:21:57.063Z,14.75
2022-09-15T03:27:00.434Z,14.75
2022-09-15T03:32:03.736Z,14.71
2022-09-15T03:37:06.413Z,14.68
2022-09-15T03:42:08.742Z,14.67
2022-09-15T03:47:11.671Z,14.63
2022-09-15T03:52:15.017Z,14.64
2022-09-15T03:57:17.777Z,14.55
2022-09-15T04:02:21.458Z,14.47
2022-09-15T04:07:23.390Z,14.44
2022-09-15T04:12:25.337Z,14.38
2022-09-15T04:17:28.086Z,14.29
2022-09-15T04:22:32.809Z,14.32
2022-09-15T04:27:38.442Z,14.39
2022-09-15T04:32:40.890Z,14.39
2022-09-15T04:37:43.056Z,14.37
2022-09-15T04:42:46.876Z,14.35
2022-09-15T04:47:52.012Z,14.35
2022-09-15T04:52:54.758Z,14.38
2022-09-15T04:57:58.252Z,14.35
2022-09-15T05:03:00.247Z,14.28
2022-09-15T05:08:03.415Z,14.26
2022-09-15T05:13:06.088Z,14.35
2022-09-15T05:18:08.583Z,14.44
2022-09-15T05:23:11.407Z,14.51
2022-09-15T05:28:14.352Z,14.56
2022-09-15T05:33:17.680Z,14.62
2022-09-15T05:38:21.515Z,14.68
2022-09-15T05:43:23.620Z,14.71
2022-09-15T05:48:27.123Z,14.74
2022-09-15T05:53:31.017Z,14.77
2022-09-15T05:58:34.662Z,14.85
2022-09-15T06:03:37.149Z,14.88
2022-09-15T06:08:44.482Z,14.81
2022-09-15T06:13:48.894Z,14.90
2022-09-15T06:18:56.852Z,15.04
2022-09-15T06:24:03.064Z,15.17
2022-09-15T06:29:06.164Z,15.22
2022-09-15T06:34:10.907Z,15.16
2022-09-15T06:39:13.534Z,15.19
2022-09-15T06:44:16.535Z,15.19
2022-09-15T06:49:19.338Z,15.24
2022-09-15T06:54:21.714Z,15.41
2022-09-15T06:59:24.553Z,15.68
2022-09-15T07:04:37.103Z,15.95
2022-09-15T07:09:41.295Z,16.64
2022-09-15T07:14:44.571Z,17.55
2022-09-15T07:19:47.958Z,18.92
2022-09-15T07:24:50.633Z,20.22
2022-09-15T07:29:53.292Z,21.15
2022-09-15T07:34:58.362Z,21.64
2022-09-15T07:40:05.718Z,21.30
2022-09-15T07:45:09.104Z,21.04
2022-09-15T07:50:14.518Z,21.26
2022-09-15T07:55:18.525Z,21.32
2022-09-15T08:00:20.777Z,21.37
2022-09-15T08:05:28.823Z,21.42
2022-09-15T08:10:33.439Z,21.44
2022-09-15T08:15:37.723Z,21.48
2022-09-15T08:20:43.617Z,21.40
2022-09-15T08:25:46.374Z,21.31
2022-09-15T08:30:49.975Z,21.27
2022-09-15T08:35:54.217Z,21.41
2022-09-15T08:41:05.947Z,21.55
2022-09-15T08:46:15.391Z,21.55
2022-09-15T08:51:41.446Z,21.50
2022-09-15T08:56:44.520Z,21.75
2022-09-15T09:02:15.112Z,21.77
2022-09-15T09:07:37.379Z,21.89
2022-09-15T09:12:52.315Z,22.05
2022-09-15T09:18:27.893Z,21.88
2022-09-15T09:23:32.831Z,21.32
2022-09-15T09:28:59.232Z,21.28
2022-09-15T09:34:10.830Z,21.39
2022-09-15T09:39:17.033Z,21.55
2022-09-15T09:44:20.154Z,21.65
2022-09-15T09:49:35.138Z,21.19
2022-09-15T09:54:37.875Z,21.05
2022-09-15T09:59:45.016Z,21.34
2022-09-15T10:05:19.460Z,21.48
2022-09-15T10:10:28.910Z,21.10
2022-09-15T10:15:35.058Z,21.14
2022-09-15T10:20:50.275Z,21.53
2022-09-15T10:26:00.598Z,21.79
2022-09-15T10:31:16.768Z,21.74
2022-09-15T10:36:33.805Z,21.59
2022-09-15T10:41:45.018Z,21.49
2022-09-15T10:47:05.449Z,21.29
2022-09-15T10:52:31.352Z,21.07
2022-09-15T10:57:57.907Z,20.87
2022-09-15T11:03:41.544Z,20.72
2022-09-15T11:09:05.705Z,20.52
2022-09-15T11:14:30.714Z,20.44
2022-09-15T11:19:46.178Z,20.33
2022-09-15T11:25:01.567Z,20.10
2022-09-15T11:30:19.325Z,19.74
2022-09-15T11:35:40.487Z,19.39
2022-09-15T11:40:55.285Z,19.16
2022-09-15T11:46:02.311Z,19.01
2022-09-15T11:51:06.441Z,18.82
2022-09-15T11:56:34.447Z,18.62
2022-09-15T12:01:59.418Z,18.41
2022-09-15T12:07:14.802Z,18.28
2022-09-15T12:12:22.187Z,18.13
2022-09-15T12:17:47.353Z,18.00
2022-09-15T12:23:20.594Z,17.99
2022-09-15T12:28:24.108Z,17.94
2022-09-15T12:33:53.935Z,17.89
2022-09-15T12:38:56.747Z,17.87
2022-09-15T12:44:05.353Z,17.93
2022-09-15T12:49:20.668Z,17.99
2022-09-15T12:54:29.426Z,18.12
2022-09-15T12:59:32.120Z,18.26
2022-09-15T13:04:52.549Z,18.37
2022-09-15T13:10:14.784Z,18.37
2022-09-15T13:15:18.747Z,18.34
2022-09-15T13:20:30.193Z,18.33
2022-09-15T13:25:33.228Z,18.30
2022-09-15T13:30:44.765Z,18.26
2022-09-15T13:36:05.799Z,18.17
2022-09-15T13:41:32.099Z,18.21
2022-09-15T13:46:38.315Z,18.43
2022-09-15T13:51:45.187Z,18.70
2022-09-15T13:56:53.884Z,18.64
2022-09-15T14:01:59.156Z,18.62
2022-09-15T14:07:02.690Z,18.81
2022-09-15T14:12:11.948Z,18.88
2022-09-15T14:17:29.856Z,18.76
2022-09-15T14:22:34.765Z,18.73
2022-09-15T14:27:43.910Z,18.73
2022-09-15T14:32:48.963Z,18.79
2022-09-15T14:37:58.173Z,18.83
2022-09-15T14:43:01.356Z,18.89
2022-09-15T14:48:09.402Z,18.91
2022-09-15T14:53:22.521Z,18.84
2022-09-15T14:58:34.202Z,18.74
2022-09-15T15:03:49.968Z,18.66
2022-09-15T15:09:03.354Z,18.55
2022-09-15T15:14:07.513Z,18.47
2022-09-15T15:19:34.467Z,18.32
2022-09-15T15:24:43.465Z,18.18
2022-09-15T15:29:46.837Z,18.10
2022-09-15T15:34:52.431Z,18.12
2022-09-15T15:39:57.617Z,18.15
2022-09-15T15:45:12.619Z,18.07
2022-09-15T15:50:24.158Z,17.97
2022-09-15T15:55:39.182Z,17.82
2022-09-15T16:00:56.314Z,17.64
2022-09-15T16:06:03.256Z,17.46
2022-09-15T16:11:09.508Z,17.31
2022-09-15T16:16:19.474Z,17.23
2022-09-15T16:21:39.245Z,17.18
2022-09-15T16:26:53.142Z,17.12
2022-09-15T16:32:00.571Z,17.02
2022-09-15T16:37:03.779Z,16.90
2022-09-15T16:42:09.201Z,16.74
2022-09-15T16:47:15.818Z,16.62
2022-09-15T16:52:19.992Z,16.55
2022-09-15T16:57:22.772Z,16.45
2022-09-15T17:02:29.855Z,16.33
2022-09-15T17:07:32.751Z,16.23
2022-09-15T17:12:37.747Z,16.15
2022-09-15T17:17:41.229Z,16.13
2022-09-15T17:22:51.616Z,16.10
2022-09-15T17:27:58.113Z,16.05
2022-09-15T17:33:04.142Z,15.98
2022-09-15T17:38:08.276Z,15.96
2022-09-15T17:43:17.733Z,15.97
2022-09-15T17:48:21.621Z,15.94
2022-09-15T17:53:28.266Z,15.90
2022-09-15T17:58:31.840Z,15.86
2022-09-15T18:03:36.804Z,15.85
2022-09-15T18:08:43.635Z,15.82
2022-09-15T18:13:49.025Z,15.80
2022-09-15T18:18:52.697Z,15.78
2022-09-15T18:23:56.828Z,15.75
2022-09-15T18:28:59.721Z,15.73
2022-09-15T18:34:02.414Z,15.71
2022-09-15T18:39:05.676Z,15.69
2022-09-15T18:44:09.117Z,15.65
2022-09-15T18:49:11.587Z,15.65
2022-09-15T18:54:16.906Z,15.65
2022-09-15T18:59:19.814Z,15.63
2022-09-15T19:04:26.321Z,15.56
2022-09-15T19:09:31.351Z,15.46
2022-09-15T19:14:34.895Z,15.45
2022-09-15T19:19:37.176Z,15.47
2022-09-15T19:24:42.609Z,15.49
2022-09-15T19:29:45.967Z,15.45
2022-09-15T19:34:48.973Z,15.44
2022-09-15T19:39:56.034Z,15.41
2022-09-15T19:44:59.914Z,15.35
2022-09-15T19:50:05.580Z,15.28
2022-09-15T19:55:12.411Z,15.18
2022-09-15T20:00:14.699Z,15.11
2022-09-15T20:05:19.335Z,15.04
2022-09-15T20:10:23.978Z,14.91
2022-09-15T20:15:28.604Z,14.79
2022-09-15T20:20:32.679Z,14.69
2022-09-15T20:25:36.226Z,14.51
2022-09-15T20:30:39.368Z,14.38
2022-09-15T20:35:43.793Z,14.29
2022-09-15T20:40:48.824Z,14.23
2022-09-15T20:46:01.643Z,14.17
2022-09-15T20:51:12.500Z,14.10
2022-09-15T20:56:16.724Z,14.03
2022-09-15T21:01:24.879Z,13.95
2022-09-15T21:06:28.831Z,13.88
2022-09-15T21:11:31.705Z,13.77
2022-09-15T21:16:34.715Z,13.67
2022-09-15T21:21:37.881Z,13.60
2022-09-15T21:27:00.599Z,13.55
2022-09-15T21:32:03.956Z,13.45
2022-09-15T21:37:06.828Z,13.39
2022-09-15T21:42:12.921Z,13.34
2022-09-15T21:47:16.232Z,13.31
2022-09-15T21:52:18.762Z,13.27
2022-09-15T21:57:21.126Z,13.18
2022-09-15T22:02:24.912Z,13.09
2022-09-15T22:07:27.837Z,12.95
2022-09-15T22:12:30.393Z,12.93
2022-09-15T22:17:32.706Z,12.86
2022-09-15T22:22:35.724Z,12.78
2022-09-15T22:27:37.931Z,12.69
2022-09-15T22:32:40.792Z,12.59
2022-09-15T22:37:43.305Z,12.56
2022-09-15T22:42:46.467Z,12.54
2022-09-15T22:47:48.507Z,12.47
2022-09-15T22:52:52.279Z,12.49
2022-09-15T22:57:54.427Z,12.48
2022-09-15T23:02:57.539Z,12.37
2022-09-15T23:08:00.121Z,12.21
2022-09-15T23:13:01.784Z,12.11
2022-09-15T23:18:04.138Z,12.09
2022-09-15T23:23:06.681Z,12.11
2022-09-15T23:28:10.255Z,12.10
2022-09-15T23:33:13.225Z,12.06
2022-09-15T23:38:16.142Z,12.10
2022-09-15T23:43:19.284Z,12.11
2022-09-15T23:48:22.680Z,12.13
2022-09-15T23:53:28.479Z,12.07
2022-09-15T23:58:30.398Z,11.98
